sensor_id;sensor_type;location;lat;lon;timestamp;P1;durP1;ratioP1;P2;durP2;ratioP2
25922;SDS011;13725;51.170;4.442;2023-10-08T00:00:43;5.57;;;2.97;;
25922;SDS011;13725;51.170;4.442;2023-10-08T00:03:15;7.80;;;3.25;;
25922;SDS011;13725;51.170;4.442;2023-10-08T00:05:42;11.60;;;3.17;;
25922;SDS011;13725;51.170;4.442;2023-10-08T00:08:08;10.30;;;2.85;;
25922;SDS011;13725;51.170;4.442;2023-10-08T00:10:35;7.53;;;3.30;;
25922;SDS011;13725;51.170;4.442;2023-10-08T00:13:03;6.18;;;2.75;;
25922;SDS011;13725;51.170;4.442;2023-10-08T00:15:33;6.57;;;2.95;;
25922;SDS011;13725;51.170;4.442;2023-10-08T00:18:01;8.10;;;3.13;;
25922;SDS011;13725;51.170;4.442;2023-10-08T00:20:27;5.30;;;2.80;;
25922;SDS011;13725;51.170;4.442;2023-10-08T00:23:03;8.75;;;3.35;;
25922;SDS011;13725;51.170;4.442;2023-10-08T00:25:33;6.90;;;3.28;;
25922;SDS011;13725;51.170;4.442;2023-10-08T00:27:59;7.00;;;3.03;;
25922;SDS011;13725;51.170;4.442;2023-10-08T00:30:27;10.35;;;3.03;;
25922;SDS011;13725;51.170;4.442;2023-10-08T00:32:54;6.57;;;2.60;;
25922;SDS011;13725;51.170;4.442;2023-10-08T00:35:19;8.02;;;2.97;;
25922;SDS011;13725;51.170;4.442;2023-10-08T00:37:46;5.18;;;2.50;;
25922;SDS011;13725;51.170;4.442;2023-10-08T00:40:13;12.15;;;2.97;;
25922;SDS011;13725;51.170;4.442;2023-10-08T00:42:44;6.63;;;2.45;;
25922;SDS011;13725;51.170;4.442;2023-10-08T00:45:13;7.78;;;3.00;;
25922;SDS011;13725;51.170;4.442;2023-10-08T00:47:39;8.48;;;2.75;;
25922;SDS011;13725;51.170;4.442;2023-10-08T00:50:11;7.72;;;3.05;;
25922;SDS011;13725;51.170;4.442;2023-10-08T00:52:47;6.93;;;3.15;;
25922;SDS011;13725;51.170;4.442;2023-10-08T00:55:26;5.03;;;2.60;;
25922;SDS011;13725;51.170;4.442;2023-10-08T00:57:58;6.90;;;3.30;;
25922;SDS011;13725;51.170;4.442;2023-10-08T01:00:32;6.10;;;2.60;;
25922;SDS011;13725;51.170;4.442;2023-10-08T01:03:04;9.25;;;3.45;;
25922;SDS011;13725;51.170;4.442;2023-10-08T01:05:40;6.15;;;2.90;;
25922;SDS011;13725;51.170;4.442;2023-10-08T01:08:13;8.20;;;3.03;;
25922;SDS011;13725;51.170;4.442;2023-10-08T01:10:47;7.28;;;2.72;;
25922;SDS011;13725;51.170;4.442;2023-10-08T01:13:14;5.88;;;2.70;;
25922;SDS011;13725;51.170;4.442;2023-10-08T01:15:46;8.20;;;3.20;;
25922;SDS011;13725;51.170;4.442;2023-10-08T01:18:16;7.35;;;3.05;;
25922;SDS011;13725;51.170;4.442;2023-10-08T01:20:49;6.53;;;2.58;;
25922;SDS011;13725;51.170;4.442;2023-10-08T01:23:18;9.23;;;2.75;;
25922;SDS011;13725;51.170;4.442;2023-10-08T01:25:52;7.65;;;3.15;;
25922;SDS011;13725;51.170;4.442;2023-10-08T01:28:22;7.22;;;3.35;;
25922;SDS011;13725;51.170;4.442;2023-10-08T01:30:58;9.07;;;3.10;;
25922;SDS011;13725;51.170;4.442;2023-10-08T01:33:29;11.30;;;3.33;;
25922;SDS011;13725;51.170;4.442;2023-10-08T01:35:56;6.43;;;3.22;;
25922;SDS011;13725;51.170;4.442;2023-10-08T01:38:28;8.18;;;3.00;;
25922;SDS011;13725;51.170;4.442;2023-10-08T01:40:54;9.45;;;3.42;;
25922;SDS011;13725;51.170;4.442;2023-10-08T01:43:21;11.00;;;3.40;;
25922;SDS011;13725;51.170;4.442;2023-10-08T01:45:47;7.30;;;3.35;;
25922;SDS011;13725;51.170;4.442;2023-10-08T01:48:16;8.63;;;3.65;;
25922;SDS011;13725;51.170;4.442;2023-10-08T01:50:53;11.05;;;3.70;;
25922;SDS011;13725;51.170;4.442;2023-10-08T01:53:20;7.78;;;3.80;;
25922;SDS011;13725;51.170;4.442;2023-10-08T01:55:46;8.02;;;3.53;;
25922;SDS011;13725;51.170;4.442;2023-10-08T01:58:15;10.80;;;3.72;;
25922;SDS011;13725;51.170;4.442;2023-10-08T02:00:43;9.48;;;3.92;;
25922;SDS011;13725;51.170;4.442;2023-10-08T02:03:12;11.23;;;4.03;;
25922;SDS011;13725;51.170;4.442;2023-10-08T02:05:46;9.30;;;3.63;;
25922;SDS011;13725;51.170;4.442;2023-10-08T02:08:12;9.98;;;4.15;;
25922;SDS011;13725;51.170;4.442;2023-10-08T02:10:39;8.45;;;3.47;;
25922;SDS011;13725;51.170;4.442;2023-10-08T02:13:09;10.75;;;3.58;;
25922;SDS011;13725;51.170;4.442;2023-10-08T02:15:36;13.13;;;3.53;;
25922;SDS011;13725;51.170;4.442;2023-10-08T02:18:05;8.13;;;3.45;;
25922;SDS011;13725;51.170;4.442;2023-10-08T02:20:32;9.23;;;4.00;;
25922;SDS011;13725;51.170;4.442;2023-10-08T02:22:58;10.32;;;3.90;;
25922;SDS011;13725;51.170;4.442;2023-10-08T02:25:26;11.88;;;3.92;;
25922;SDS011;13725;51.170;4.442;2023-10-08T02:27:53;9.30;;;4.28;;
25922;SDS011;13725;51.170;4.442;2023-10-08T02:30:19;8.27;;;4.32;;
25922;SDS011;13725;51.170;4.442;2023-10-08T02:32:44;10.25;;;4.10;;
25922;SDS011;13725;51.170;4.442;2023-10-08T02:35:11;9.48;;;4.03;;
25922;SDS011;13725;51.170;4.442;2023-10-08T02:37:38;8.07;;;4.00;;
25922;SDS011;13725;51.170;4.442;2023-10-08T02:40:10;9.38;;;3.78;;
25922;SDS011;13725;51.170;4.442;2023-10-08T02:42:45;7.95;;;3.47;;
25922;SDS011;13725;51.170;4.442;2023-10-08T02:45:13;11.23;;;4.18;;
25922;SDS011;13725;51.170;4.442;2023-10-08T02:47:40;7.32;;;3.53;;
25922;SDS011;13725;51.170;4.442;2023-10-08T02:50:10;12.75;;;3.85;;
25922;SDS011;13725;51.170;4.442;2023-10-08T02:52:36;8.85;;;3.35;;
25922;SDS011;13725;51.170;4.442;2023-10-08T02:55:02;8.10;;;3.58;;
25922;SDS011;13725;51.170;4.442;2023-10-08T02:57:30;12.73;;;3.58;;
25922;SDS011;13725;51.170;4.442;2023-10-08T02:59:57;8.30;;;3.65;;
25922;SDS011;13725;51.170;4.442;2023-10-08T03:02:23;6.63;;;3.20;;
25922;SDS011;13725;51.170;4.442;2023-10-08T03:04:51;9.15;;;3.80;;
25922;SDS011;13725;51.170;4.442;2023-10-08T03:07:18;6.95;;;3.58;;
25922;SDS011;13725;51.170;4.442;2023-10-08T03:09:49;7.07;;;3.63;;
25922;SDS011;13725;51.170;4.442;2023-10-08T03:12:28;6.22;;;3.17;;
25922;SDS011;13725;51.170;4.442;2023-10-08T03:14:57;8.00;;;3.53;;
25922;SDS011;13725;51.170;4.442;2023-10-08T03:17:47;11.00;;;3.60;;
25922;SDS011;13725;51.170;4.442;2023-10-08T03:20:16;9.93;;;3.33;;
25922;SDS011;13725;51.170;4.442;2023-10-08T03:23:01;9.15;;;3.30;;
25922;SDS011;13725;51.170;4.442;2023-10-08T03:25:31;10.35;;;4.43;;
25922;SDS011;13725;51.170;4.442;2023-10-08T03:27:58;8.70;;;3.70;;
25922;SDS011;13725;51.170;4.442;2023-10-08T03:30:25;8.75;;;3.42;;
25922;SDS011;13725;51.170;4.442;2023-10-08T03:32:52;9.88;;;3.70;;
25922;SDS011;13725;51.170;4.442;2023-10-08T03:35:24;10.13;;;4.05;;
25922;SDS011;13725;51.170;4.442;2023-10-08T03:37:53;13.20;;;4.50;;
25922;SDS011;13725;51.170;4.442;2023-10-08T03:40:19;7.95;;;5.07;;
25922;SDS011;13725;51.170;4.442;2023-10-08T03:43:07;7.43;;;4.00;;
25922;SDS011;13725;51.170;4.442;2023-10-08T03:45:45;7.85;;;3.90;;
25922;SDS011;13725;51.170;4.442;2023-10-08T03:48:16;10.60;;;4.90;;
25922;SDS011;13725;51.170;4.442;2023-10-08T03:50:42;11.77;;;4.70;;
25922;SDS011;13725;51.170;4.442;2023-10-08T03:53:09;13.23;;;4.43;;
25922;SDS011;13725;51.170;4.442;2023-10-08T03:55:40;10.15;;;5.20;;
25922;SDS011;13725;51.170;4.442;2023-10-08T03:58:09;8.98;;;5.28;;
25922;SDS011;13725;51.170;4.442;2023-10-08T04:00:42;12.63;;;5.05;;
25922;SDS011;13725;51.170;4.442;2023-10-08T04:03:11;9.13;;;4.53;;
25922;SDS011;13725;51.170;4.442;2023-10-08T04:05:37;8.57;;;4.50;;
25922;SDS011;13725;51.170;4.442;2023-10-08T04:08:15;11.02;;;4.50;;
25922;SDS011;13725;51.170;4.442;2023-10-08T04:10:49;11.15;;;4.60;;
25922;SDS011;13725;51.170;4.442;2023-10-08T04:13:38;12.70;;;4.57;;
25922;SDS011;13725;51.170;4.442;2023-10-08T04:16:10;10.27;;;4.35;;
25922;SDS011;13725;51.170;4.442;2023-10-08T04:18:36;14.48;;;4.43;;
25922;SDS011;13725;51.170;4.442;2023-10-08T04:21:06;14.00;;;5.00;;
25922;SDS011;13725;51.170;4.442;2023-10-08T04:23:39;10.80;;;5.40;;
25922;SDS011;13725;51.170;4.442;2023-10-08T04:26:06;9.43;;;4.82;;
25922;SDS011;13725;51.170;4.442;2023-10-08T04:28:32;8.73;;;3.97;;
25922;SDS011;13725;51.170;4.442;2023-10-08T04:31:00;13.60;;;4.70;;
25922;SDS011;13725;51.170;4.442;2023-10-08T04:33:43;13.40;;;4.63;;
25922;SDS011;13725;51.170;4.442;2023-10-08T04:36:10;10.85;;;4.15;;
25922;SDS011;13725;51.170;4.442;2023-10-08T04:38:43;14.38;;;5.15;;
25922;SDS011;13725;51.170;4.442;2023-10-08T04:41:11;10.45;;;4.70;;
25922;SDS011;13725;51.170;4.442;2023-10-08T04:43:37;10.95;;;4.55;;
25922;SDS011;13725;51.170;4.442;2023-10-08T04:46:03;10.85;;;4.85;;
25922;SDS011;13725;51.170;4.442;2023-10-08T04:48:56;11.30;;;5.00;;
25922;SDS011;13725;51.170;4.442;2023-10-08T04:51:23;12.32;;;5.28;;
25922;SDS011;13725;51.170;4.442;2023-10-08T04:53:49;18.17;;;6.13;;
25922;SDS011;13725;51.170;4.442;2023-10-08T04:56:15;12.13;;;6.55;;
25922;SDS011;13725;51.170;4.442;2023-10-08T04:58:44;12.35;;;6.40;;
25922;SDS011;13725;51.170;4.442;2023-10-08T05:01:14;16.42;;;7.05;;
25922;SDS011;13725;51.170;4.442;2023-10-08T05:03:53;12.35;;;6.53;;
25922;SDS011;13725;51.170;4.442;2023-10-08T05:06:27;13.85;;;6.75;;
25922;SDS011;13725;51.170;4.442;2023-10-08T05:09:12;11.43;;;6.40;;
25922;SDS011;13725;51.170;4.442;2023-10-08T05:11:39;12.48;;;5.88;;
25922;SDS011;13725;51.170;4.442;2023-10-08T05:14:20;17.48;;;5.78;;
25922;SDS011;13725;51.170;4.442;2023-10-08T05:16:59;11.52;;;5.22;;
25922;SDS011;13725;51.170;4.442;2023-10-08T05:19:35;11.52;;;4.82;;
25922;SDS011;13725;51.170;4.442;2023-10-08T05:22:05;10.30;;;5.03;;
25922;SDS011;13725;51.170;4.442;2023-10-08T05:24:46;11.00;;;4.47;;
25922;SDS011;13725;51.170;4.442;2023-10-08T05:27:35;10.07;;;4.53;;
25922;SDS011;13725;51.170;4.442;2023-10-08T05:30:14;13.07;;;5.75;;
25922;SDS011;13725;51.170;4.442;2023-10-08T05:32:44;9.30;;;4.35;;
25922;SDS011;13725;51.170;4.442;2023-10-08T05:35:28;11.07;;;4.72;;
25922;SDS011;13725;51.170;4.442;2023-10-08T05:38:15;13.35;;;6.22;;
25922;SDS011;13725;51.170;4.442;2023-10-08T05:40:48;15.77;;;5.63;;
25922;SDS011;13725;51.170;4.442;2023-10-08T05:49:04;14.30;;;6.45;;
25922;SDS011;13725;51.170;4.442;2023-10-08T05:51:36;16.85;;;6.50;;
25922;SDS011;13725;51.170;4.442;2023-10-08T05:54:25;15.35;;;5.25;;
25922;SDS011;13725;51.170;4.442;2023-10-08T05:59:50;13.65;;;5.00;;
25922;SDS011;13725;51.170;4.442;2023-10-08T06:02:26;10.93;;;5.25;;
25922;SDS011;13725;51.170;4.442;2023-10-08T06:07:50;9.40;;;4.70;;
25922;SDS011;13725;51.170;4.442;2023-10-08T06:13:13;15.60;;;5.10;;
25922;SDS011;13725;51.170;4.442;2023-10-08T06:15:42;12.77;;;5.30;;
25922;SDS011;13725;51.170;4.442;2023-10-08T06:18:18;13.85;;;5.28;;
25922;SDS011;13725;51.170;4.442;2023-10-08T06:20:49;10.20;;;5.15;;
25922;SDS011;13725;51.170;4.442;2023-10-08T06:23:19;10.60;;;5.60;;
25922;SDS011;13725;51.170;4.442;2023-10-08T06:25:48;13.98;;;5.80;;
25922;SDS011;13725;51.170;4.442;2023-10-08T06:28:22;13.40;;;5.97;;
25922;SDS011;13725;51.170;4.442;2023-10-08T06:30:52;11.85;;;5.57;;
25922;SDS011;13725;51.170;4.442;2023-10-08T06:33:21;11.02;;;5.43;;
25922;SDS011;13725;51.170;4.442;2023-10-08T06:35:50;11.10;;;5.47;;
25922;SDS011;13725;51.170;4.442;2023-10-08T06:38:31;11.70;;;4.88;;
25922;SDS011;13725;51.170;4.442;2023-10-08T06:41:01;14.65;;;5.50;;
25922;SDS011;13725;51.170;4.442;2023-10-08T06:43:42;10.82;;;5.22;;
25922;SDS011;13725;51.170;4.442;2023-10-08T06:46:28;14.27;;;7.45;;
25922;SDS011;13725;51.170;4.442;2023-10-08T06:49:03;13.75;;;7.82;;
25922;SDS011;13725;51.170;4.442;2023-10-08T06:51:38;14.10;;;8.30;;
25922;SDS011;13725;51.170;4.442;2023-10-08T06:54:04;16.70;;;8.18;;
25922;SDS011;13725;51.170;4.442;2023-10-08T06:56:35;18.17;;;8.27;;
25922;SDS011;13725;51.170;4.442;2023-10-08T06:59:00;13.65;;;7.40;;
25922;SDS011;13725;51.170;4.442;2023-10-08T07:01:26;14.13;;;7.75;;
25922;SDS011;13725;51.170;4.442;2023-10-08T07:04:06;13.57;;;7.30;;
25922;SDS011;13725;51.170;4.442;2023-10-08T07:06:40;13.25;;;6.75;;
25922;SDS011;13725;51.170;4.442;2023-10-08T07:09:09;13.82;;;7.43;;
25922;SDS011;13725;51.170;4.442;2023-10-08T07:11:58;14.18;;;6.70;;
25922;SDS011;13725;51.170;4.442;2023-10-08T07:14:30;12.43;;;6.22;;
25922;SDS011;13725;51.170;4.442;2023-10-08T07:16:56;11.88;;;6.93;;
25922;SDS011;13725;51.170;4.442;2023-10-08T07:19:24;13.25;;;6.60;;
25922;SDS011;13725;51.170;4.442;2023-10-08T07:22:01;12.35;;;6.80;;
25922;SDS011;13725;51.170;4.442;2023-10-08T07:24:28;14.57;;;7.30;;
25922;SDS011;13725;51.170;4.442;2023-10-08T07:26:56;15.60;;;7.18;;
25922;SDS011;13725;51.170;4.442;2023-10-08T07:29:22;13.60;;;6.82;;
25922;SDS011;13725;51.170;4.442;2023-10-08T07:31:48;17.25;;;6.80;;
25922;SDS011;13725;51.170;4.442;2023-10-08T07:34:20;10.77;;;6.63;;
25922;SDS011;13725;51.170;4.442;2023-10-08T07:36:49;18.85;;;7.47;;
25922;SDS011;13725;51.170;4.442;2023-10-08T07:39:16;10.13;;;5.75;;
25922;SDS011;13725;51.170;4.442;2023-10-08T07:42:06;8.63;;;5.53;;
25922;SDS011;13725;51.170;4.442;2023-10-08T07:44:32;11.30;;;5.57;;
25922;SDS011;13725;51.170;4.442;2023-10-08T07:47:01;15.38;;;6.18;;
25922;SDS011;13725;51.170;4.442;2023-10-08T07:49:31;9.82;;;5.20;;
25922;SDS011;13725;51.170;4.442;2023-10-08T07:51:57;13.25;;;4.50;;
25922;SDS011;13725;51.170;4.442;2023-10-08T07:54:24;9.88;;;4.80;;
25922;SDS011;13725;51.170;4.442;2023-10-08T07:56:55;10.90;;;4.38;;
25922;SDS011;13725;51.170;4.442;2023-10-08T07:59:38;15.50;;;4.90;;
25922;SDS011;13725;51.170;4.442;2023-10-08T08:02:06;10.57;;;4.32;;
25922;SDS011;13725;51.170;4.442;2023-10-08T08:07:08;10.35;;;4.35;;
25922;SDS011;13725;51.170;4.442;2023-10-08T08:09:44;10.15;;;4.50;;
25922;SDS011;13725;51.170;4.442;2023-10-08T08:12:21;12.65;;;5.00;;
25922;SDS011;13725;51.170;4.442;2023-10-08T08:14:47;11.15;;;4.72;;
25922;SDS011;13725;51.170;4.442;2023-10-08T08:17:17;11.57;;;5.07;;
25922;SDS011;13725;51.170;4.442;2023-10-08T08:19:45;9.35;;;4.88;;
25922;SDS011;13725;51.170;4.442;2023-10-08T08:22:13;12.32;;;4.85;;
25922;SDS011;13725;51.170;4.442;2023-10-08T08:24:49;12.45;;;4.90;;
25922;SDS011;13725;51.170;4.442;2023-10-08T08:27:20;12.75;;;5.20;;
25922;SDS011;13725;51.170;4.442;2023-10-08T08:29:57;13.90;;;5.38;;
25922;SDS011;13725;51.170;4.442;2023-10-08T08:32:37;12.23;;;5.63;;
25922;SDS011;13725;51.170;4.442;2023-10-08T08:35:11;10.77;;;4.93;;
25922;SDS011;13725;51.170;4.442;2023-10-08T08:37:41;14.10;;;5.10;;
25922;SDS011;13725;51.170;4.442;2023-10-08T08:40:08;12.13;;;4.93;;
25922;SDS011;13725;51.170;4.442;2023-10-08T08:42:35;14.77;;;5.10;;
25922;SDS011;13725;51.170;4.442;2023-10-08T08:45:03;12.77;;;5.28;;
25922;SDS011;13725;51.170;4.442;2023-10-08T08:47:37;10.88;;;5.32;;
25922;SDS011;13725;51.170;4.442;2023-10-08T08:50:06;13.88;;;6.07;;
25922;SDS011;13725;51.170;4.442;2023-10-08T08:52:39;12.02;;;5.53;;
25922;SDS011;13725;51.170;4.442;2023-10-08T08:55:06;12.10;;;5.32;;
25922;SDS011;13725;51.170;4.442;2023-10-08T08:57:43;15.25;;;5.85;;
25922;SDS011;13725;51.170;4.442;2023-10-08T09:00:13;10.82;;;5.50;;
25922;SDS011;13725;51.170;4.442;2023-10-08T09:02:46;10.85;;;5.30;;
25922;SDS011;13725;51.170;4.442;2023-10-08T09:05:14;12.75;;;4.88;;
25922;SDS011;13725;51.170;4.442;2023-10-08T09:07:52;12.52;;;5.05;;
25922;SDS011;13725;51.170;4.442;2023-10-08T09:10:25;12.90;;;5.65;;
25922;SDS011;13725;51.170;4.442;2023-10-08T09:12:58;12.23;;;5.72;;
25922;SDS011;13725;51.170;4.442;2023-10-08T09:15:25;13.00;;;4.90;;
25922;SDS011;13725;51.170;4.442;2023-10-08T09:17:54;13.55;;;4.85;;
25922;SDS011;13725;51.170;4.442;2023-10-08T09:20:21;13.27;;;5.68;;
25922;SDS011;13725;51.170;4.442;2023-10-08T09:25:47;10.02;;;5.45;;
25922;SDS011;13725;51.170;4.442;2023-10-08T09:28:18;14.63;;;5.75;;
25922;SDS011;13725;51.170;4.442;2023-10-08T09:30:44;12.57;;;5.57;;
25922;SDS011;13725;51.170;4.442;2023-10-08T09:33:11;12.38;;;5.63;;
25922;SDS011;13725;51.170;4.442;2023-10-08T09:35:38;13.15;;;5.53;;
25922;SDS011;13725;51.170;4.442;2023-10-08T09:38:04;12.95;;;4.90;;
25922;SDS011;13725;51.170;4.442;2023-10-08T09:40:35;14.20;;;5.22;;
25922;SDS011;13725;51.170;4.442;2023-10-08T09:43:02;12.80;;;5.63;;
25922;SDS011;13725;51.170;4.442;2023-10-08T09:45:29;15.32;;;6.00;;
25922;SDS011;13725;51.170;4.442;2023-10-08T09:47:56;13.38;;;5.75;;
25922;SDS011;13725;51.170;4.442;2023-10-08T09:50:28;13.43;;;6.10;;
25922;SDS011;13725;51.170;4.442;2023-10-08T09:55:33;11.50;;;5.22;;
25922;SDS011;13725;51.170;4.442;2023-10-08T09:58:00;16.08;;;5.57;;
25922;SDS011;13725;51.170;4.442;2023-10-08T10:00:26;15.38;;;6.25;;
25922;SDS011;13725;51.170;4.442;2023-10-08T10:02:59;16.65;;;5.75;;
25922;SDS011;13725;51.170;4.442;2023-10-08T10:05:30;10.95;;;4.80;;
25922;SDS011;13725;51.170;4.442;2023-10-08T10:08:04;12.60;;;6.18;;
25922;SDS011;13725;51.170;4.442;2023-10-08T10:10:31;14.57;;;5.38;;
25922;SDS011;13725;51.170;4.442;2023-10-08T10:13:03;11.90;;;5.82;;
25922;SDS011;13725;51.170;4.442;2023-10-08T10:15:33;14.90;;;5.57;;
25922;SDS011;13725;51.170;4.442;2023-10-08T10:20:41;13.50;;;5.68;;
25922;SDS011;13725;51.170;4.442;2023-10-08T10:23:35;12.80;;;5.53;;
25922;SDS011;13725;51.170;4.442;2023-10-08T10:26:03;14.38;;;6.20;;
25922;SDS011;13725;51.170;4.442;2023-10-08T10:28:29;12.68;;;5.68;;
25922;SDS011;13725;51.170;4.442;2023-10-08T10:30:55;13.13;;;6.00;;
25922;SDS011;13725;51.170;4.442;2023-10-08T10:33:31;12.50;;;5.80;;
25922;SDS011;13725;51.170;4.442;2023-10-08T10:36:00;14.90;;;5.40;;
25922;SDS011;13725;51.170;4.442;2023-10-08T10:38:26;15.63;;;6.45;;
25922;SDS011;13725;51.170;4.442;2023-10-08T10:40:53;13.40;;;5.82;;
25922;SDS011;13725;51.170;4.442;2023-10-08T10:43:24;17.08;;;6.32;;
25922;SDS011;13725;51.170;4.442;2023-10-08T10:46:00;14.95;;;5.65;;
25922;SDS011;13725;51.170;4.442;2023-10-08T10:48:45;15.75;;;5.47;;
25922;SDS011;13725;51.170;4.442;2023-10-08T10:51:22;18.30;;;5.70;;
25922;SDS011;13725;51.170;4.442;2023-10-08T10:53:48;11.02;;;5.43;;
25922;SDS011;13725;51.170;4.442;2023-10-08T10:56:33;11.05;;;5.22;;
25922;SDS011;13725;51.170;4.442;2023-10-08T10:59:10;13.93;;;5.30;;
25922;SDS011;13725;51.170;4.442;2023-10-08T11:01:47;16.33;;;5.75;;
25922;SDS011;13725;51.170;4.442;2023-10-08T11:04:32;10.30;;;4.95;;
25922;SDS011;13725;51.170;4.442;2023-10-08T11:07:20;16.40;;;5.60;;
25922;SDS011;13725;51.170;4.442;2023-10-08T11:09:48;11.93;;;5.72;;
25922;SDS011;13725;51.170;4.442;2023-10-08T11:12:17;12.32;;;6.68;;
25922;SDS011;13725;51.170;4.442;2023-10-08T11:14:49;15.27;;;5.50;;
25922;SDS011;13725;51.170;4.442;2023-10-08T11:17:24;12.02;;;5.32;;
25922;SDS011;13725;51.170;4.442;2023-10-08T11:19:51;15.25;;;5.28;;
25922;SDS011;13725;51.170;4.442;2023-10-08T11:22:17;13.75;;;5.53;;
25922;SDS011;13725;51.170;4.442;2023-10-08T11:24:45;13.15;;;5.72;;
25922;SDS011;13725;51.170;4.442;2023-10-08T11:27:19;13.45;;;5.68;;
25922;SDS011;13725;51.170;4.442;2023-10-08T11:29:55;18.27;;;6.75;;
25922;SDS011;13725;51.170;4.442;2023-10-08T11:32:26;13.75;;;5.55;;
25922;SDS011;13725;51.170;4.442;2023-10-08T11:37:27;16.50;;;5.40;;
25922;SDS011;13725;51.170;4.442;2023-10-08T11:39:59;15.98;;;5.47;;
25922;SDS011;13725;51.170;4.442;2023-10-08T11:42:34;15.13;;;5.20;;
25922;SDS011;13725;51.170;4.442;2023-10-08T11:45:00;16.13;;;5.53;;
25922;SDS011;13725;51.170;4.442;2023-10-08T11:47:45;12.23;;;4.95;;
25922;SDS011;13725;51.170;4.442;2023-10-08T11:50:24;15.00;;;5.10;;
25922;SDS011;13725;51.170;4.442;2023-10-08T11:52:59;10.90;;;5.15;;
25922;SDS011;13725;51.170;4.442;2023-10-08T11:55:28;17.10;;;9.32;;
25922;SDS011;13725;51.170;4.442;2023-10-08T11:57:59;15.25;;;6.72;;
25922;SDS011;13725;51.170;4.442;2023-10-08T12:00:25;11.35;;;5.47;;
25922;SDS011;13725;51.170;4.442;2023-10-08T12:02:52;15.68;;;7.55;;
25922;SDS011;13725;51.170;4.442;2023-10-08T12:05:21;15.95;;;6.72;;
25922;SDS011;13725;51.170;4.442;2023-10-08T12:07:53;13.55;;;5.65;;
25922;SDS011;13725;51.170;4.442;2023-10-08T12:10:23;17.70;;;7.80;;
25922;SDS011;13725;51.170;4.442;2023-10-08T12:15:18;29.02;;;14.02;;
25922;SDS011;13725;51.170;4.442;2023-10-08T12:17:50;16.40;;;7.78;;
25922;SDS011;13725;51.170;4.442;2023-10-08T12:20:37;12.88;;;5.93;;
25922;SDS011;13725;51.170;4.442;2023-10-08T12:23:04;18.92;;;5.57;;
25922;SDS011;13725;51.170;4.442;2023-10-08T12:25:31;14.00;;;5.72;;
25922;SDS011;13725;51.170;4.442;2023-10-08T12:28:00;14.95;;;5.28;;
25922;SDS011;13725;51.170;4.442;2023-10-08T12:30:32;12.57;;;5.53;;
25922;SDS011;13725;51.170;4.442;2023-10-08T12:33:06;12.13;;;5.80;;
25922;SDS011;13725;51.170;4.442;2023-10-08T12:35:32;10.38;;;5.18;;
25922;SDS011;13725;51.170;4.442;2023-10-08T12:37:58;10.43;;;4.80;;
25922;SDS011;13725;51.170;4.442;2023-10-08T12:40:24;9.10;;;4.80;;
25922;SDS011;13725;51.170;4.442;2023-10-08T12:42:58;12.18;;;5.30;;
25922;SDS011;13725;51.170;4.442;2023-10-08T12:45:25;14.73;;;5.03;;
25922;SDS011;13725;51.170;4.442;2023-10-08T12:47:53;16.90;;;6.15;;
25922;SDS011;13725;51.170;4.442;2023-10-08T12:50:19;13.45;;;5.63;;
25922;SDS011;13725;51.170;4.442;2023-10-08T12:52:57;10.38;;;4.70;;
25922;SDS011;13725;51.170;4.442;2023-10-08T12:55:29;12.63;;;4.85;;
25922;SDS011;13725;51.170;4.442;2023-10-08T12:57:56;12.90;;;4.95;;
25922;SDS011;13725;51.170;4.442;2023-10-08T13:00:31;16.92;;;5.47;;
25922;SDS011;13725;51.170;4.442;2023-10-08T13:02:57;9.40;;;4.70;;
25922;SDS011;13725;51.170;4.442;2023-10-08T13:05:23;15.55;;;5.28;;
25922;SDS011;13725;51.170;4.442;2023-10-08T13:07:56;11.18;;;4.85;;
25922;SDS011;13725;51.170;4.442;2023-10-08T13:10:28;15.73;;;5.18;;
25922;SDS011;13725;51.170;4.442;2023-10-08T13:12:56;14.05;;;4.97;;
25922;SDS011;13725;51.170;4.442;2023-10-08T13:15:22;8.50;;;4.45;;
25922;SDS011;13725;51.170;4.442;2023-10-08T13:17:51;13.38;;;4.72;;
25922;SDS011;13725;51.170;4.442;2023-10-08T13:20:17;12.20;;;4.85;;
25922;SDS011;13725;51.170;4.442;2023-10-08T13:22:43;13.90;;;5.00;;
25922;SDS011;13725;51.170;4.442;2023-10-08T13:25:10;12.73;;;4.65;;
25922;SDS011;13725;51.170;4.442;2023-10-08T13:27:37;15.50;;;4.75;;
25922;SDS011;13725;51.170;4.442;2023-10-08T13:30:07;10.68;;;4.78;;
25922;SDS011;13725;51.170;4.442;2023-10-08T13:32:36;13.45;;;4.95;;
25922;SDS011;13725;51.170;4.442;2023-10-08T13:35:06;12.85;;;5.47;;
25922;SDS011;13725;51.170;4.442;2023-10-08T13:37:35;12.55;;;5.15;;
25922;SDS011;13725;51.170;4.442;2023-10-08T13:40:01;16.58;;;5.38;;
25922;SDS011;13725;51.170;4.442;2023-10-08T13:42:27;14.95;;;5.50;;
25922;SDS011;13725;51.170;4.442;2023-10-08T13:44:54;11.70;;;5.13;;
25922;SDS011;13725;51.170;4.442;2023-10-08T13:47:23;11.15;;;4.70;;
25922;SDS011;13725;51.170;4.442;2023-10-08T13:49:54;14.10;;;5.53;;
25922;SDS011;13725;51.170;4.442;2023-10-08T13:52:22;10.25;;;4.85;;
25922;SDS011;13725;51.170;4.442;2023-10-08T13:55:02;17.73;;;5.53;;
25922;SDS011;13725;51.170;4.442;2023-10-08T13:57:31;14.50;;;5.35;;
25922;SDS011;13725;51.170;4.442;2023-10-08T13:59:58;10.80;;;4.72;;
25922;SDS011;13725;51.170;4.442;2023-10-08T14:02:25;13.82;;;5.13;;
25922;SDS011;13725;51.170;4.442;2023-10-08T14:04:52;13.85;;;4.95;;
25922;SDS011;13725;51.170;4.442;2023-10-08T14:07:18;14.90;;;5.47;;
25922;SDS011;13725;51.170;4.442;2023-10-08T14:09:46;16.25;;;5.40;;
25922;SDS011;13725;51.170;4.442;2023-10-08T14:12:12;15.25;;;5.25;;
25922;SDS011;13725;51.170;4.442;2023-10-08T14:14:39;15.07;;;5.75;;
25922;SDS011;13725;51.170;4.442;2023-10-08T14:17:09;12.95;;;5.00;;
25922;SDS011;13725;51.170;4.442;2023-10-08T14:19:40;12.90;;;5.75;;
25922;SDS011;13725;51.170;4.442;2023-10-08T14:22:25;12.80;;;5.28;;
25922;SDS011;13725;51.170;4.442;2023-10-08T14:24:52;17.02;;;5.22;;
25922;SDS011;13725;51.170;4.442;2023-10-08T14:27:27;14.35;;;5.22;;
25922;SDS011;13725;51.170;4.442;2023-10-08T14:30:06;9.90;;;5.15;;
25922;SDS011;13725;51.170;4.442;2023-10-08T14:32:41;15.15;;;5.75;;
25922;SDS011;13725;51.170;4.442;2023-10-08T14:35:13;16.35;;;5.70;;
25922;SDS011;13725;51.170;4.442;2023-10-08T14:37:59;12.35;;;5.20;;
25922;SDS011;13725;51.170;4.442;2023-10-08T14:40:44;12.70;;;5.07;;
25922;SDS011;13725;51.170;4.442;2023-10-08T14:43:30;13.35;;;5.95;;
25922;SDS011;13725;51.170;4.442;2023-10-08T14:46:00;10.38;;;5.25;;
25922;SDS011;13725;51.170;4.442;2023-10-08T14:48:34;13.38;;;5.03;;
25922;SDS011;13725;51.170;4.442;2023-10-08T14:51:03;11.93;;;5.13;;
25922;SDS011;13725;51.170;4.442;2023-10-08T14:53:31;16.83;;;5.70;;
25922;SDS011;13725;51.170;4.442;2023-10-08T14:55:59;12.18;;;5.60;;
25922;SDS011;13725;51.170;4.442;2023-10-08T14:58:29;10.45;;;5.05;;
25922;SDS011;13725;51.170;4.442;2023-10-08T15:00:55;19.55;;;5.78;;
25922;SDS011;13725;51.170;4.442;2023-10-08T15:03:21;13.20;;;5.50;;
25922;SDS011;13725;51.170;4.442;2023-10-08T15:05:47;14.20;;;4.65;;
25922;SDS011;13725;51.170;4.442;2023-10-08T15:08:13;13.75;;;5.05;;
25922;SDS011;13725;51.170;4.442;2023-10-08T15:10:39;14.32;;;5.15;;
25922;SDS011;13725;51.170;4.442;2023-10-08T15:13:06;16.67;;;5.13;;
25922;SDS011;13725;51.170;4.442;2023-10-08T15:15:32;13.52;;;5.22;;
25922;SDS011;13725;51.170;4.442;2023-10-08T15:18:00;14.52;;;5.10;;
25922;SDS011;13725;51.170;4.442;2023-10-08T15:20:31;13.45;;;4.78;;
25922;SDS011;13725;51.170;4.442;2023-10-08T15:22:58;11.77;;;5.20;;
25922;SDS011;13725;51.170;4.442;2023-10-08T15:25:25;13.00;;;5.80;;
25922;SDS011;13725;51.170;4.442;2023-10-08T15:27:51;14.65;;;4.93;;
25922;SDS011;13725;51.170;4.442;2023-10-08T15:30:17;11.95;;;4.95;;